Time;durP1;ratioP1;P1;durP2;ratioP2;P2;SDS_P1;SDS_P2;PMS_P1;PMS_P2;Temp;Humidity;BMP_temperature;BMP_pressure;BME280_temperature;BME280_humidity;BME280_pressure;Samples;Min_cycle;Max_cycle;Signal;HPM_P1;HPM_P2
2022/02/11 00:01:48;;;;;;;5.88;3.70;;;9.20;78.00;;;;;;6297461;28;20099;-79
2022/02/11 00:08:15;;;;;;;9.07;3.63;;;9.20;77.30;;;;;;6280576;28;20060;-80
2022/02/11 00:11:18;;;;;;;10.07;4.13;;;9.20;77.10;;;;;;6297411;28;20083;-80
2022/02/11 00:14:20;;;;;;;10.07;3.97;;;9.20;77.10;;;;;;6297593;28;20059;-80
2022/02/11 00:17:23;;;;;;;7.85;3.63;;;9.20;77.00;;;;;;6297525;28;20098;-80
2022/02/11 00:20:26;;;;;;;9.30;3.72;;;9.10;76.50;;;;;;6297770;28;20048;-79
2022/02/11 00:23:27;;;;;;;13.30;4.07;;;9.00;76.60;;;;;;6297202;28;20506;-79
2022/02/11 00:26:33;;;;;;;9.60;4.20;;;9.00;77.00;;;;;;6297285;28;20040;-79
2022/02/11 00:30:19;;;;;;;7.43;3.53;;;8.90;76.70;;;;;;6297042;28;20051;-79
2022/02/11 00:33:20;;;;;;;5.88;2.80;;;8.90;76.00;;;;;;6296966;28;20048;-79
2022/02/11 00:36:26;;;;;;;8.23;3.83;;;8.90;75.00;;;;;;6289382;28;20235;-79
2022/02/11 00:40:00;;;;;;;6.47;2.63;;;8.80;74.70;;;;;;6295571;28;20119;-79
2022/02/11 00:46:29;;;;;;;8.43;2.70;;;8.80;74.00;;;;;;6295527;28;20032;-79
2022/02/11 01:02:55;;;;;;;4.47;2.40;;;8.80;73.60;;;;;;6297279;28;20488;-79
2022/02/11 01:05:58;;;;;;;7.03;2.17;;;8.80;73.80;;;;;;6293922;28;20052;-79
2022/02/11 01:09:00;;;;;;;5.90;2.67;;;8.80;73.90;;;;;;6291622;28;20087;-79
2022/02/11 01:12:04;;;;;;;7.18;2.70;;;8.80;74.10;;;;;;6296409;28;20068;-79
2022/02/11 01:15:07;;;;;;;3.83;2.15;;;8.80;74.20;;;;;;6295544;28;20041;-78
2022/02/11 01:18:11;;;;;;;3.65;2.25;;;8.90;74.40;;;;;;6296059;28;20509;-79
2022/02/11 01:21:21;;;;;;;6.55;3.67;;;8.90;74.80;;;;;;6297133;28;20052;-79
2022/02/11 01:24:44;;;;;;;3.85;2.13;;;8.90;75.00;;;;;;6297105;28;20057;-80
2022/02/11 01:27:57;;;;;;;4.00;2.05;;;8.90;75.20;;;;;;6296157;28;20048;-79
2022/02/11 01:31:08;;;;;;;5.75;2.47;;;8.90;75.20;;;;;;6295913;28;20115;-79
2022/02/11 01:34:30;;;;;;;4.75;2.65;;;9.00;75.40;;;;;;6296539;28;20502;-81
2022/02/11 01:37:40;;;;;;;7.25;2.65;;;9.10;76.00;;;;;;6291861;28;20046;-79
2022/02/11 01:47:41;;;;;;;7.30;3.25;;;8.80;81.10;;;;;;6280602;28;20087;-78
2022/02/11 01:50:57;;;;;;;9.60;3.97;;;8.70;83.10;;;;;;6299664;28;20048;-78
2022/02/11 01:54:07;;;;;;;8.45;3.42;;;8.60;84.30;;;;;;6299676;28;20102;-78
2022/02/11 01:57:15;;;;;;;14.30;4.40;;;8.50;84.90;;;;;;6299591;28;20064;-78
2022/02/11 02:00:42;;;;;;;;;;;8.40;86.20;;;;;;6300856;28;20048;-79
2022/02/11 02:14:21;;;;;;;8.70;3.97;;;8.10;88.50;;;;;;6300336;28;20049;-80
2022/02/11 02:28:11;;;;;;;12.02;4.53;;;8.00;90.30;;;;;;6294132;28;20044;-80
2022/02/11 02:57:58;;;;;;;15.98;5.43;;;7.80;92.20;;;;;;6277245;28;20052;-81
2022/02/11 03:01:29;;;;;;;6.45;4.00;;;7.80;93.70;;;;;;6278594;28;20135;-80
2022/02/11 03:14:57;;;;;;;4.18;2.22;;;7.10;95.80;;;;;;6274684;28;20040;-80
2022/02/11 03:51:36;;;;;;;9.60;2.10;;;7.10;96.90;;;;;;6274739;28;20045;-80
2022/02/11 03:58:28;;;;;;;3.97;1.50;;;7.20;96.90;;;;;;6273665;28;20044;-80
2022/02/11 04:55:03;;;;;;;1.45;0.90;;;6.70;96.00;;;;;;6296926;28;20056;-80
2022/02/11 05:01:25;;;;;;;1.70;0.80;;;6.40;95.70;;;;;;6297258;28;20045;-79
2022/02/11 05:04:27;;;;;;;3.03;0.80;;;6.20;95.60;;;;;;6296675;28;20137;-79
2022/02/11 05:07:28;;;;;;;3.40;0.70;;;6.00;95.60;;;;;;6287177;28;20512;-79
2022/02/11 05:10:30;;;;;;;2.70;1.13;;;5.80;95.80;;;;;;6299030;28;20044;-80
2022/02/11 05:13:33;;;;;;;1.55;0.82;;;5.70;96.00;;;;;;6301790;28;20041;-79
2022/02/11 05:16:35;;;;;;;4.20;0.90;;;5.80;96.50;;;;;;6302277;28;20058;-79
2022/02/11 05:19:37;;;;;;;1.20;0.70;;;5.90;96.50;;;;;;6301472;28;20127;-79
2022/02/11 05:22:39;;;;;;;4.03;1.25;;;6.00;96.40;;;;;;6301279;28;20068;-79
2022/02/11 05:25:42;;;;;;;2.00;0.80;;;6.10;96.10;;;;;;6301244;28;20036;-79
2022/02/11 05:28:45;;;;;;;3.10;1.60;;;6.10;96.10;;;;;;6301425;28;20045;-79
2022/02/11 05:31:47;;;;;;;1.42;0.90;;;5.90;95.60;;;;;;6276138;28;20041;-79
2022/02/11 05:34:49;;;;;;;10.75;1.58;;;5.70;95.50;;;;;;6277217;28;20142;-79
2022/02/11 05:37:50;;;;;;;2.80;0.98;;;5.50;95.40;;;;;;6292917;28;20037;-79
2022/02/11 05:40:52;;;;;;;2.88;1.15;;;5.30;95.50;;;;;;6301916;28;20051;-79
2022/02/11 05:43:55;;;;;;;2.25;0.63;;;5.10;95.60;;;;;;6301092;28;20044;-79
2022/02/11 05:46:57;;;;;;;4.60;0.88;;;4.90;95.70;;;;;;6301415;28;20048;-80
2022/02/11 05:50:00;;;;;;;1.98;1.05;;;4.80;95.80;;;;;;6301279;28;20406;-79
2022/02/11 05:53:01;;;;;;;4.88;0.88;;;4.60;95.90;;;;;;6301337;28;20048;-80
2022/02/11 05:56:04;;;;;;;2.22;1.15;;;4.60;95.90;;;;;;6301955;28;20477;-80
2022/02/11 05:59:07;;;;;;;3.15;1.35;;;4.40;95.90;;;;;;6301679;28;20144;-79
2022/02/11 06:02:09;;;;;;;5.13;1.33;;;4.40;96.00;;;;;;6300348;28;20048;-79
2022/02/11 06:05:11;;;;;;;3.92;1.40;;;4.20;95.90;;;;;;6296715;28;20558;-78
2022/02/11 06:08:13;;;;;;;3.72;1.80;;;4.20;95.90;;;;;;6290912;28;20056;-78
2022/02/11 06:11:14;;;;;;;4.38;1.58;;;4.10;95.80;;;;;;6299359;28;20040;-77
2022/02/11 06:14:18;;;;;;;5.55;1.67;;;4.00;95.90;;;;;;6298997;28;20044;-78
2022/02/11 06:17:20;;;;;;;7.13;2.38;;;3.90;96.00;;;;;;6298479;28;20060;-78
2022/02/11 06:20:27;;;;;;;5.72;2.10;;;3.90;96.20;;;;;;6298624;28;20071;-79
2022/02/11 06:23:31;;;;;;;7.80;2.22;;;3.90;96.20;;;;;;6298284;28;20049;-77
2022/02/11 06:26:32;;;;;;;4.38;2.20;;;3.80;96.00;;;;;;6298267;28;20044;-77
2022/02/11 06:29:36;;;;;;;4.88;1.77;;;3.80;95.90;;;;;;6298480;28;20047;-77
2022/02/11 06:32:37;;;;;;;6.38;1.90;;;3.60;95.80;;;;;;6298579;28;20102;-78
2022/02/11 06:35:44;;;;;;;5.18;2.05;;;3.50;95.90;;;;;;6295453;28;20413;-77
2022/02/11 06:38:46;;;;;;;4.30;1.52;;;3.50;95.90;;;;;;6290597;28;20513;-78
2022/02/11 06:41:48;;;;;;;5.43;1.92;;;3.50;96.10;;;;;;6298494;28;20099;-79
2022/02/11 06:44:51;;;;;;;8.50;2.63;;;3.40;96.10;;;;;;6298706;28;20055;-78
2022/02/11 06:47:53;;;;;;;5.72;3.28;;;3.40;96.10;;;;;;6298246;28;20044;-79
2022/02/11 06:50:56;;;;;;;5.40;3.10;;;3.40;96.20;;;;;;6298207;28;20391;-80
2022/02/11 06:53:58;;;;;;;9.02;3.05;;;3.40;96.30;;;;;;6298126;28;20048;-78
2022/02/11 06:57:00;;;;;;;5.18;2.60;;;3.40;96.40;;;;;;6298520;28;20076;-78
2022/02/11 07:00:03;;;;;;;8.25;3.97;;;3.50;96.30;;;;;;6297898;28;20041;-78
2022/02/11 07:03:05;;;;;;;7.75;2.72;;;3.50;96.30;;;;;;6297688;28;20124;-78
2022/02/11 07:06:07;;;;;;;7.00;3.08;;;3.60;96.30;;;;;;6289196;28;20051;-78
2022/02/11 07:09:09;;;;;;;6.45;2.85;;;3.60;96.00;;;;;;6276965;28;20056;-78
2022/02/11 07:12:11;;;;;;;8.05;3.83;;;3.60;96.00;;;;;;6272914;28;20049;-79
2022/02/11 07:15:14;;;;;;;11.02;2.78;;;3.70;96.10;;;;;;6272207;28;20049;-79
2022/02/11 07:18:16;;;;;;;8.77;3.05;;;3.70;96.10;;;;;;6272905;28;20045;-79
2022/02/11 07:21:18;;;;;;;5.28;2.75;;;3.80;96.40;;;;;;6274574;28;20084;-79
2022/02/11 07:24:20;;;;;;;13.32;3.35;;;4.10;96.20;;;;;;6273371;28;20075;-79
2022/02/11 07:27:21;;;;;;;7.03;3.15;;;4.20;96.00;;;;;;6272232;28;20074;-78
2022/02/11 07:30:25;;;;;;;10.95;4.25;;;4.30;95.70;;;;;;6272851;28;20055;-78
2022/02/11 07:33:26;;;;;;;8.57;3.78;;;4.40;95.40;;;;;;6271304;28;20133;-78
2022/02/11 07:36:28;;;;;;;6.95;2.88;;;4.50;95.30;;;;;;6282869;28;20060;-78
2022/02/11 07:39:31;;;;;;;8.27;3.20;;;4.60;95.30;;;;;;6296023;28;20051;-79
2022/02/11 07:42:33;;;;;;;8.50;2.97;;;4.60;95.00;;;;;;6296723;28;20056;-79
2022/02/11 07:45:37;;;;;;;7.97;2.72;;;4.60;94.60;;;;;;6296783;28;20060;-79
2022/02/11 07:48:39;;;;;;;3.85;2.22;;;4.70;95.10;;;;;;6297312;28;20049;-79
2022/02/11 07:51:41;;;;;;;7.63;2.97;;;4.80;94.80;;;;;;6297034;28;20531;-79
2022/02/11 07:54:45;;;;;;;8.95;2.83;;;4.70;94.50;;;;;;6297262;28;20044;-78
2022/02/11 07:57:46;;;;;;;6.53;2.22;;;4.60;94.50;;;;;;6296738;28;20041;-78
2022/02/11 08:00:49;;;;;;;7.72;3.13;;;4.60;94.50;;;;;;6297145;28;20048;-78
2022/02/11 08:03:51;;;;;;;12.38;3.30;;;4.70;94.40;;;;;;6298378;28;20417;-78
2022/02/11 08:06:53;;;;;;;5.80;2.22;;;4.80;94.10;;;;;;6288101;28;20045;-79
2022/02/11 08:09:55;;;;;;;7.35;2.20;;;4.90;94.00;;;;;;6297429;28;20051;-79
2022/02/11 08:12:57;;;;;;;7.10;1.83;;;5.00;93.90;;;;;;6297492;28;20052;-79
2022/02/11 08:16:01;;;;;;;7.50;2.20;;;5.20;93.70;;;;;;6296890;28;20044;-79
2022/02/11 08:19:03;;;;;;;7.07;2.50;;;5.40;94.00;;;;;;6296769;28;20127;-79
2022/02/11 08:22:05;;;;;;;6.50;2.75;;;5.60;94.00;;;;;;6296770;28;20063;-79
2022/02/11 08:25:07;;;;;;;6.30;3.05;;;5.80;93.70;;;;;;6296369;28;20497;-79
2022/02/11 08:28:09;;;;;;;6.72;2.78;;;5.90;93.30;;;;;;6297135;28;20080;-79
2022/02/11 08:31:13;;;;;;;6.05;2.97;;;6.00;93.40;;;;;;6296792;28;20043;-79
2022/02/11 08:34:15;;;;;;;6.90;3.92;;;6.20;93.30;;;;;;6296377;28;20071;-79
2022/02/11 08:37:17;;;;;;;8.95;3.97;;;6.40;92.40;;;;;;6282274;28;20049;-78
2022/02/11 08:40:19;;;;;;;7.35;3.15;;;6.60;92.00;;;;;;6272054;28;20053;-79
2022/02/11 08:43:21;;;;;;;9.32;3.20;;;6.90;91.70;;;;;;6274034;28;20552;-79
2022/02/11 08:46:26;;;;;;;15.07;3.22;;;7.20;91.60;;;;;;6278912;28;20525;-80
2022/02/11 08:49:28;;;;;;;6.68;3.10;;;7.50;91.10;;;;;;6278970;28;20509;-80
2022/02/11 08:52:30;;;;;;;7.55;3.35;;;7.80;89.80;;;;;;6279097;28;20459;-80
2022/02/11 08:55:31;;;;;;;11.32;3.63;;;7.90;90.30;;;;;;6278618;28;20562;-81
2022/02/11 08:58:33;;;;;;;10.38;3.50;;;8.20;89.80;;;;;;6278930;28;20049;-81
2022/02/11 09:01:36;;;;;;;5.85;3.35;;;8.80;87.00;;;;;;6279523;28;20045;-81
2022/02/11 09:04:40;;;;;;;7.90;2.78;;;9.20;85.40;;;;;;6280375;28;20053;-80
2022/02/11 09:07:41;;;;;;;18.77;8.40;;;9.40;81.20;;;;;;6289733;28;20071;-80
2022/02/11 09:10:47;;;;;;;10.57;3.92;;;9.20;79.40;;;;;;6281760;28;20099;-80
2022/02/11 09:13:50;;;;;;;8.85;3.58;;;8.90;80.70;;;;;;6281566;28;20094;-80
2022/02/11 09:16:53;;;;;;;11.95;3.92;;;8.70;82.50;;;;;;6283419;28;20052;-80
2022/02/11 09:19:55;;;;;;;6.70;3.00;;;8.50;80.90;;;;;;6281470;28;20558;-81
2022/02/11 09:22:57;;;;;;;4.45;2.80;;;8.20;81.00;;;;;;6278105;28;20041;-78
2022/02/11 09:25:59;;;;;;;8.10;4.03;;;7.90;81.20;;;;;;6287693;28;20053;-79
2022/02/11 09:29:01;;;;;;;7.60;3.22;;;7.70;82.80;;;;;;6301695;28;20049;-78
2022/02/11 09:32:06;;;;;;;11.32;3.75;;;7.60;81.40;;;;;;6301330;28;20052;-79
2022/02/11 09:35:09;;;;;;;5.75;3.15;;;7.50;82.10;;;;;;6300328;28;20063;-79
2022/02/11 09:38:11;;;;;;;12.07;4.10;;;7.60;81.60;;;;;;6288179;28;20052;-80
2022/02/11 09:41:13;;;;;;;12.25;2.65;;;7.70;81.60;;;;;;6276093;28;20491;-80
2022/02/11 09:44:15;;;;;;;8.50;3.40;;;7.90;82.00;;;;;;6277022;28;20572;-80
2022/02/11 09:47:20;;;;;;;9.05;2.58;;;8.20;79.90;;;;;;6282332;28;20094;-80
2022/02/11 09:50:22;;;;;;;6.82;3.08;;;8.60;78.50;;;;;;6301814;28;20178;-80
2022/02/11 09:53:27;;;;;;;5.38;2.80;;;9.00;78.50;;;;;;6301789;28;20063;-82
2022/02/11 09:56:29;;;;;;;6.93;2.40;;;9.40;75.50;;;;;;6302117;28;20076;-80
2022/02/11 09:59:31;;;;;;;12.98;4.47;;;9.80;73.60;;;;;;6301900;28;20052;-81
2022/02/11 10:02:34;;;;;;;8.43;2.67;;;10.20;74.30;;;;;;6280919;28;20122;-82
2022/02/11 10:05:36;;;;;;;7.75;2.40;;;10.90;70.80;;;;;;6284668;28;20131;-80
2022/02/11 10:08:40;;;;;;;8.35;2.60;;;11.10;68.80;;;;;;6286223;28;20053;-79
2022/02/11 10:11:43;;;;;;;10.18;2.97;;;11.10;68.40;;;;;;6275920;28;20525;-81
2022/02/11 10:14:45;;;;;;;13.73;3.08;;;10.90;68.10;;;;;;6276265;28;20473;-81
2022/02/11 10:17:48;;;;;;;6.18;2.33;;;10.60;68.70;;;;;;6276665;28;20056;-80
2022/02/11 10:20:52;;;;;;;8.25;2.75;;;10.60;70.50;;;;;;6277372;28;20049;-80
2022/02/11 10:23:54;;;;;;;10.32;2.95;;;10.50;70.60;;;;;;6277455;28;20053;-80
2022/02/11 10:26:58;;;;;;;9.80;2.92;;;10.20;69.50;;;;;;6282458;28;20078;-80
2022/02/11 10:30:01;;;;;;;4.13;1.95;;;9.80;69.80;;;;;;6301239;28;20049;-79
2022/02/11 10:33:05;;;;;;;9.13;2.75;;;9.40;71.10;;;;;;6301366;28;20048;-80
2022/02/11 10:36:15;;;;;;;8.32;2.78;;;9.20;72.70;;;;;;6292658;28;20592;-79
2022/02/11 10:39:19;;;;;;;10.35;2.95;;;8.70;73.60;;;;;;6280359;28;20061;-79
2022/02/11 10:42:21;;;;;;;9.13;3.00;;;8.50;74.60;;;;;;6275997;28;20041;-79
2022/02/11 10:45:27;;;;;;;12.23;3.47;;;8.30;75.50;;;;;;6274131;28;20041;-78
2022/02/11 10:48:34;;;;;;;6.70;3.38;;;8.30;75.90;;;;;;6274752;28;20498;-80
2022/02/11 10:51:42;;;;;;;7.07;2.78;;;8.20;76.60;;;;;;6274469;28;20116;-79
2022/02/11 10:54:44;;;;;;;15.07;5.90;;;8.20;78.30;;;;;;6275189;28;20052;-81
2022/02/11 10:57:54;;;;;;;6.50;2.55;;;8.30;76.70;;;;;;6274939;28;20811;-79
2022/02/11 11:01:00;;;;;;;7.38;2.83;;;8.30;76.60;;;;;;6274580;28;20055;-79
2022/02/11 11:04:03;;;;;;;9.63;3.58;;;8.30;76.50;;;;;;6274305;28;20064;-80
2022/02/11 11:07:07;;;;;;;12.45;4.40;;;8.30;77.10;;;;;;6287325;28;20153;-78
2022/02/11 11:10:12;;;;;;;8.77;3.25;;;8.30;75.10;;;;;;6299171;28;20045;-79
2022/02/11 11:13:16;;;;;;;8.27;3.25;;;8.20;75.70;;;;;;6298818;28;20085;-78
2022/02/11 11:16:18;;;;;;;16.65;3.45;;;8.20;76.70;;;;;;6299485;28;20135;-79
2022/02/11 11:19:22;;;;;;;7.72;2.25;;;8.20;77.00;;;;;;6298641;28;20055;-78
2022/02/11 11:22:28;;;;;;;7.78;2.70;;;8.20;76.30;;;;;;6298422;28;20047;-79
2022/02/11 11:25:52;;;;;;;8.27;2.55;;;8.20;75.10;;;;;;6282164;28;20049;-79
2022/02/11 11:29:03;;;;;;;8.38;2.25;;;8.10;75.50;;;;;;6289396;28;20045;-80
2022/02/11 11:32:05;;;;;;;5.75;2.47;;;8.10;75.60;;;;;;6274437;28;20123;-79
2022/02/11 11:35:09;;;;;;;3.92;2.20;;;8.10;75.10;;;;;;6283765;28;20131;-77
2022/02/11 11:38:11;;;;;;;8.18;2.85;;;8.00;75.50;;;;;;6289030;28;20045;-80
2022/02/11 11:41:19;;;;;;;7.35;2.47;;;8.10;75.80;;;;;;6275973;28;20045;-80
2022/02/11 11:44:24;;;;;;;4.68;2.35;;;8.20;77.10;;;;;;6280878;28;20049;-81
2022/02/11 11:47:32;;;;;;;8.07;2.22;;;8.20;76.60;;;;;;6274367;28;20041;-80
2022/02/11 11:50:35;;;;;;;14.13;2.67;;;8.20;75.30;;;;;;6273593;28;20045;-83
2022/02/11 11:53:37;;;;;;;10.63;2.22;;;8.20;75.90;;;;;;6274891;28;20055;-81
2022/02/11 11:56:38;;;;;;;6.88;2.40;;;8.20;75.10;;;;;;6274212;28;20055;-80
2022/02/11 11:59:45;;;;;;;7.55;2.35;;;8.10;74.90;;;;;;6273939;28;20045;-81
2022/02/11 12:02:50;;;;;;;8.60;2.72;;;8.10;74.90;;;;;;6273779;28;20506;-80
2022/02/11 12:05:55;;;;;;;7.75;2.55;;;8.10;75.80;;;;;;6284269;28;20041;-82
2022/02/11 12:08:57;;;;;;;6.53;2.70;;;8.20;76.30;;;;;;6274983;28;20056;-79
2022/02/11 12:12:01;;;;;;;7.22;2.75;;;8.30;77.70;;;;;;6273341;28;20104;-81
2022/02/11 12:15:05;;;;;;;5.68;2.28;;;8.50;76.60;;;;;;6274434;28;20052;-81
2022/02/11 12:18:06;;;;;;;7.45;1.77;;;8.50;75.10;;;;;;6273015;28;20041;-81
2022/02/11 12:21:10;;;;;;;8.00;2.38;;;8.50;75.60;;;;;;6274200;28;20514;-81
2022/02/11 12:27:33;;;;;;;7.72;2.53;;;8.50;75.50;;;;;;6275235;28;20036;-81
2022/02/11 12:30:42;;;;;;;5.68;2.17;;;8.60;75.00;;;;;;6297686;28;20044;-81
2022/02/11 12:33:44;;;;;;;7.20;2.13;;;8.70;74.60;;;;;;6297615;28;20071;-80
2022/02/11 12:36:47;;;;;;;7.53;3.38;;;8.70;75.10;;;;;;6289350;28;20062;-81
2022/02/11 12:40:01;;;;;;;6.68;2.13;;;8.70;74.40;;;;;;6275168;28;20049;-83
2022/02/11 12:43:05;;;;;;;7.38;2.17;;;8.80;74.30;;;;;;6274077;28;20359;-82
2022/02/11 12:46:09;;;;;;;16.52;3.13;;;8.90;74.30;;;;;;6274272;28;20067;-79
2022/02/11 12:49:11;;;;;;;5.57;3.05;;;8.90;74.50;;;;;;6274786;28;20049;-79
2022/02/11 12:52:20;;;;;;;7.32;2.85;;;8.80;73.00;;;;;;6274664;28;20088;-81
2022/02/11 12:55:22;;;;;;;10.48;6.05;;;8.70;74.60;;;;;;6274103;28;20049;-81
2022/02/11 12:58:24;;;;;;;5.55;2.03;;;8.80;73.70;;;;;;6273537;28;20059;-80
2022/02/11 13:01:35;;;;;;;5.07;2.05;;;9.20;73.00;;;;;;6273391;28;20045;-81
2022/02/11 13:04:37;;;;;;;5.70;2.20;;;9.60;74.10;;;;;;6275547;28;20108;-81
2022/02/11 13:07:41;;;;;;;5.75;1.55;;;10.20;73.30;;;;;;6281568;28;20045;-81
2022/02/11 13:10:43;;;;;;;12.73;3.45;;;10.90;69.30;;;;;;6273616;28;20041;-81
2022/02/11 13:13:45;;;;;;;7.80;1.70;;;11.40;68.50;;;;;;6272522;28;20056;-80
2022/02/11 13:16:47;;;;;;;5.78;2.63;;;11.80;66.40;;;;;;6275484;28;20060;-81
2022/02/11 13:19:49;;;;;;;10.35;3.83;;;12.10;65.90;;;;;;6273417;28;20049;-80
2022/02/11 13:22:53;;;;;;;15.15;8.00;;;12.50;64.50;;;;;;6277690;28;20053;-81
2022/02/11 13:25:56;;;;;;;16.98;6.57;;;12.90;64.30;;;;;;6276510;28;20048;-83
2022/02/11 13:28:58;;;;;;;8.57;1.30;;;13.40;62.30;;;;;;6280909;28;20047;-84
2022/02/11 13:31:59;;;;;;;6.22;1.20;;;13.70;60.90;;;;;;6289683;28;20083;-84
2022/02/11 13:35:02;;;;;;;3.28;1.10;;;13.70;57.70;;;;;;6286765;28;20068;-83
2022/02/11 13:38:05;;;;;;;9.18;2.25;;;13.60;57.40;;;;;;6298586;28;20044;-84
2022/02/11 13:41:08;;;;;;;8.40;1.63;;;13.60;59.10;;;;;;6309598;28;20131;-83
2022/02/11 13:44:12;;;;;;;4.18;1.70;;;13.40;57.30;;;;;;6306299;28;20040;-84
2022/02/11 13:47:17;;;;;;;5.82;1.10;;;13.00;55.30;;;;;;6307146;28;20051;-84
2022/02/11 13:50:18;;;;;;;5.43;1.92;;;12.60;56.50;;;;;;6307205;28;20049;-83
2022/02/11 13:53:33;;;;;;;5.00;1.98;;;12.20;58.10;;;;;;6306512;28;20497;-84
2022/02/11 13:56:39;;;;;;;12.02;3.25;;;12.00;58.50;;;;;;6305175;28;20052;-83
2022/02/11 13:59:41;;;;;;;7.47;5.25;;;11.80;59.90;;;;;;6305973;28;20044;-83
2022/02/11 14:02:43;;;;;;;7.60;2.45;;;11.50;58.60;;;;;;6306998;28;20413;-81
2022/02/11 14:05:45;;;;;;;6.15;1.83;;;11.20;59.80;;;;;;6303272;28;20219;-81
2022/02/11 14:08:49;;;;;;;3.65;2.30;;;11.00;61.70;;;;;;6298707;28;20062;-82
2022/02/11 14:11:50;;;;;;;5.47;1.55;;;10.80;62.40;;;;;;6306297;28;20062;-82
2022/02/11 14:14:53;;;;;;;8.05;2.33;;;10.50;62.00;;;;;;6305405;28;20048;-82
2022/02/11 14:17:55;;;;;;;3.58;1.42;;;10.20;62.10;;;;;;6305107;28;20139;-82
2022/02/11 14:20:57;;;;;;;5.85;2.17;;;10.20;62.90;;;;;;6305367;28;20418;-83
2022/02/11 14:24:01;;;;;;;4.38;1.25;;;10.30;63.80;;;;;;6305860;28;20068;-83
2022/02/11 14:27:06;;;;;;;4.93;1.40;;;10.50;63.60;;;;;;6305455;28;20433;-83
2022/02/11 14:30:09;;;;;;;13.13;1.52;;;10.80;62.10;;;;;;6302419;28;20114;-83
2022/02/11 14:33:12;;;;;;;10.98;2.45;;;11.00;61.90;;;;;;6301354;28;20044;-84
2022/02/11 14:36:14;;;;;;;6.22;2.05;;;11.10;65.50;;;;;;6300027;28;20080;-83
2022/02/11 14:39:18;;;;;;;4.35;1.58;;;11.20;62.60;;;;;;6301714;28;20104;-82
2022/02/11 14:42:19;;;;;;;4.28;1.58;;;11.30;64.20;;;;;;6304625;28;20482;-82
2022/02/11 14:45:21;;;;;;;4.20;1.48;;;11.40;62.20;;;;;;6305242;28;20048;-83
2022/02/11 14:48:23;;;;;;;3.83;1.38;;;11.30;61.00;;;;;;6306321;28;20052;-83
2022/02/11 14:51:25;;;;;;;8.82;1.58;;;11.20;60.60;;;;;;6305878;28;20104;-83
2022/02/11 14:54:30;;;;;;;8.68;1.88;;;11.10;61.30;;;;;;6303435;28;20059;-83
2022/02/11 14:57:33;;;;;;;4.20;1.52;;;11.00;61.30;;;;;;6288065;28;20040;-83
2022/02/11 15:00:35;;;;;;;5.90;1.52;;;10.80;63.60;;;;;;6288462;28;20055;-83
2022/02/11 15:03:37;;;;;;;6.25;2.05;;;10.90;64.00;;;;;;6280165;28;20180;-83
2022/02/11 15:06:39;;;;;;;9.25;1.90;;;10.80;63.30;;;;;;6287352;28;20132;-82
2022/02/11 15:09:43;;;;;;;6.63;1.70;;;10.60;63.30;;;;;;6300933;28;20527;-82
2022/02/11 15:12:45;;;;;;;4.57;1.30;;;10.50;63.40;;;;;;6305887;28;20130;-82
2022/02/11 15:15:47;;;;;;;5.15;1.10;;;10.20;63.80;;;;;;6304926;28;20052;-82
2022/02/11 15:18:49;;;;;;;6.05;2.08;;;10.00;63.30;;;;;;6305042;28;20049;-82
2022/02/11 15:21:50;;;;;;;5.07;1.27;;;10.10;63.60;;;;;;6304621;28;20051;-83
2022/02/11 15:24:54;;;;;;;5.45;1.65;;;9.90;63.20;;;;;;6307663;28;20102;-83
2022/02/11 15:27:55;;;;;;;5.30;1.17;;;9.80;62.80;;;;;;6305962;28;20055;-83
2022/02/11 15:30:57;;;;;;;5.95;1.30;;;9.80;62.70;;;;;;6301725;28;20049;-83
2022/02/11 15:33:59;;;;;;;9.55;1.35;;;9.90;63.30;;;;;;6288205;28;20582;-84
2022/02/11 15:37:01;;;;;;;3.17;1.60;;;9.90;62.30;;;;;;6298462;28;20048;-83
2022/02/11 15:40:06;;;;;;;6.43;1.60;;;10.00;62.70;;;;;;6306408;28;20048;-81
2022/02/11 15:43:08;;;;;;;7.68;1.40;;;9.90;65.50;;;;;;6303749;28;20403;-83
2022/02/11 15:46:12;;;;;;;5.35;1.27;;;9.90;63.50;;;;;;6307585;28;20424;-83
2022/02/11 15:49:14;;;;;;;5.90;1.52;;;9.80;63.70;;;;;;6303258;28;20567;-83
2022/02/11 15:52:15;;;;;;;11.50;1.83;;;9.70;64.10;;;;;;6304057;28;20048;-83
2022/02/11 15:55:19;;;;;;;7.55;1.95;;;9.60;63.50;;;;;;6301993;28;20066;-82
2022/02/11 15:58:21;;;;;;;11.40;2.13;;;9.50;64.80;;;;;;6279524;28;20045;-82
2022/02/11 16:01:22;;;;;;;9.20;1.75;;;9.40;64.90;;;;;;6278455;28;20111;-82
2022/02/11 16:04:24;;;;;;;6.03;1.38;;;9.30;65.10;;;;;;6280058;28;20048;-82
2022/02/11 16:07:27;;;;;;;11.95;3.85;;;9.20;66.40;;;;;;6295982;28;20044;-85
2022/02/11 16:10:31;;;;;;;14.55;3.42;;;9.20;67.70;;;;;;6303942;28;20127;-82
2022/02/11 16:13:34;;;;;;;9.70;1.85;;;9.20;67.10;;;;;;6305899;28;20123;-81
2022/02/11 16:16:35;;;;;;;5.05;1.73;;;9.20;68.70;;;;;;6307185;28;20048;-82
2022/02/11 16:19:37;;;;;;;6.85;1.98;;;9.30;71.80;;;;;;6306340;28;20041;-81
2022/02/11 16:22:39;;;;;;;7.07;1.65;;;9.30;69.40;;;;;;6306529;28;20051;-79
2022/02/11 16:25:43;;;;;;;5.22;1.58;;;9.10;67.40;;;;;;6306319;28;20040;-83
2022/02/11 16:28:45;;;;;;;10.32;3.38;;;8.90;68.80;;;;;;6306507;28;20055;-81
2022/02/11 16:31:49;;;;;;;6.97;2.10;;;8.60;68.30;;;;;;6301399;28;20045;-81
2022/02/11 16:34:51;;;;;;;5.40;2.00;;;8.50;70.50;;;;;;6292823;28;20101;-80
2022/02/11 16:37:52;;;;;;;6.47;1.70;;;8.20;71.60;;;;;;6293230;28;20174;-81
2022/02/11 16:40:55;;;;;;;4.07;1.50;;;8.20;71.20;;;;;;6302684;28;20135;-81
2022/02/11 16:43:57;;;;;;;2.70;1.10;;;8.10;72.40;;;;;;6303295;28;20116;-81
2022/02/11 16:46:59;;;;;;;7.03;2.03;;;7.90;73.70;;;;;;6299426;28;20483;-82
2022/02/11 16:50:01;;;;;;;3.25;1.73;;;7.70;72.90;;;;;;6306448;28;20054;-80
2022/02/11 16:53:02;;;;;;;6.55;2.47;;;7.50;74.60;;;;;;6306926;28;20131;-81
2022/02/11 16:56:06;;;;;;;5.75;2.55;;;7.50;76.10;;;;;;6305386;28;20452;-82
2022/02/11 16:59:09;;;;;;;7.72;1.83;;;7.50;76.80;;;;;;6296547;28;20120;-80
2022/02/11 17:02:11;;;;;;;6.55;1.95;;;7.50;76.40;;;;;;6287160;28;20041;-80
2022/02/11 17:05:12;;;;;;;7.82;1.45;;;7.50;76.70;;;;;;6306158;28;20426;-80
2022/02/11 17:08:14;;;;;;;10.63;2.65;;;7.50;76.60;;;;;;6294760;28;20651;-80
2022/02/11 17:11:18;;;;;;;6.10;2.45;;;7.60;83.70;;;;;;6282474;28;20053;-82
2022/02/11 17:14:19;;;;;;;7.40;3.05;;;8.10;85.90;;;;;;6281741;28;20049;-82
2022/02/11 17:17:21;;;;;;;194.52;172.77;;;8.60;83.00;;;;;;6281767;28;20055;-81
2022/02/11 17:20:23;;;;;;;17.33;3.78;;;8.70;79.60;;;;;;6282954;28;20059;-82
2022/02/11 17:23:25;;;;;;;9.05;2.05;;;8.70;79.20;;;;;;6281159;28;20392;-80
2022/02/11 17:26:31;;;;;;;9.70;1.65;;;8.40;77.70;;;;;;6279425;28;20051;-81
2022/02/11 17:29:33;;;;;;;7.70;2.10;;;8.20;76.10;;;;;;6281191;28;20048;-81
2022/02/11 17:32:35;;;;;;;9.75;1.83;;;7.90;76.30;;;;;;6279988;28;20098;-81
2022/02/11 17:35:37;;;;;;;13.23;2.50;;;7.60;77.40;;;;;;6300147;28;20701;-79
2022/02/11 17:38:39;;;;;;;9.20;2.83;;;7.40;77.40;;;;;;6295270;28;20041;-80
2022/02/11 17:41:43;;;;;;;10.48;3.10;;;7.20;77.70;;;;;;6303349;28;20076;-80
2022/02/11 17:44:45;;;;;;;13.77;2.72;;;6.90;79.30;;;;;;6303456;28;20048;-79
2022/02/11 17:47:47;;;;;;;7.65;1.80;;;6.70;80.10;;;;;;6303102;28;20561;-80
2022/02/11 17:50:48;;;;;;;13.68;2.60;;;6.50;80.70;;;;;;6303406;28;20044;-81
2022/02/11 17:53:50;;;;;;;8.55;3.25;;;6.40;80.60;;;;;;6303085;28;20037;-80
2022/02/11 17:56:54;;;;;;;20.45;3.53;;;6.20;81.80;;;;;;6302875;28;20052;-80
2022/02/11 17:59:56;;;;;;;6.03;1.85;;;6.10;82.20;;;;;;6302231;28;20505;-81
2022/02/11 18:02:58;;;;;;;4.75;1.80;;;6.00;82.40;;;;;;6303202;28;20118;-79
2022/02/11 18:06:00;;;;;;;5.15;2.13;;;5.80;82.70;;;;;;6297308;28;20179;-79
2022/02/11 18:09:02;;;;;;;10.45;2.00;;;5.70;83.20;;;;;;6298827;28;20052;-80
2022/02/11 18:12:06;;;;;;;3.38;1.67;;;5.50;83.60;;;;;;6304452;28;20513;-80
2022/02/11 18:15:08;;;;;;;6.18;1.52;;;5.50;84.10;;;;;;6302616;28;20048;-80
2022/02/11 18:18:10;;;;;;;6.13;1.65;;;5.30;83.10;;;;;;6303420;28;20042;-80
2022/02/11 18:21:16;;;;;;;7.65;1.83;;;5.20;83.50;;;;;;6305198;28;20052;-81
2022/02/11 18:24:18;;;;;;;7.95;2.10;;;5.10;84.00;;;;;;6302990;28;20106;-81
2022/02/11 18:27:21;;;;;;;5.05;2.15;;;5.00;84.10;;;;;;6302526;28;20053;-80
2022/02/11 18:30:23;;;;;;;10.90;2.28;;;5.00;84.60;;;;;;6302296;28;20055;-80
2022/02/11 18:33:25;;;;;;;4.35;2.40;;;4.90;84.70;;;;;;6302304;28;20113;-80
2022/02/11 18:36:26;;;;;;;7.85;2.72;;;5.00;84.90;;;;;;6290193;28;20053;-82
2022/02/11 18:39:28;;;;;;;11.50;2.00;;;5.00;85.00;;;;;;6301320;28;20041;-82
2022/02/11 18:42:33;;;;;;;6.30;2.60;;;5.20;84.90;;;;;;6302125;28;20052;-82
2022/02/11 18:45:35;;;;;;;8.05;2.88;;;5.40;84.40;;;;;;6302733;28;20040;-82
2022/02/11 18:48:37;;;;;;;15.60;2.42;;;5.50;83.80;;;;;;6302701;28;20053;-81
2022/02/11 18:51:42;;;;;;;6.60;2.42;;;5.60;83.20;;;;;;6305450;28;20544;-81
2022/02/11 18:54:44;;;;;;;15.02;2.10;;;5.70;83.00;;;;;;6301881;28;20044;-81
2022/02/11 18:57:47;;;;;;;6.75;2.65;;;5.80;83.10;;;;;;6306724;28;20127;-82
2022/02/11 19:00:49;;;;;;;6.70;1.88;;;5.90;82.90;;;;;;6278084;28;20049;-81
2022/02/11 19:03:50;;;;;;;11.52;4.18;;;6.00;82.90;;;;;;6277282;28;20045;-81
2022/02/11 19:06:52;;;;;;;24.40;4.30;;;6.10;82.80;;;;;;6265305;28;20049;-81